Time;durP1;ratioP1;P1;durP2;ratioP2;P2;SDS_P1;SDS_P2;PMS_P1;PMS_P2;Temp;Humidity;BMP_temperature;BMP_pressure;BME280_temperature;BME280_humidity;BME280_pressure;Samples;Min_cycle;Max_cycle;Signal;HPM_P1;HPM_P2
2022/10/30 00:02:22;;;;;;;7.10;2.75;;;;;;;-140.72;100.00;52735.81;5076220;28;20023;-69
2022/10/30 00:04:48;;;;;;;6.20;2.42;;;;;;;-140.72;100.00;52715.53;5081913;28;20012;-70
2022/10/30 00:07:13;;;;;;;4.53;2.80;;;;;;;-140.72;100.00;52750.03;5085292;28;20024;-69
2022/10/30 00:09:38;;;;;;;6.05;2.47;;;;;;;-140.72;100.00;52784.53;5077087;28;20056;-68
2022/10/30 00:12:04;;;;;;;6.55;4.13;;;;;;;-140.72;100.00;52762.22;5084785;28;20035;-68
2022/10/30 00:14:29;;;;;;;4.65;3.80;;;;;;;-140.72;100.00;52760.19;5073448;28;20376;-69
2022/10/30 00:16:54;;;;;;;6.15;3.38;;;;;;;-140.72;100.00;52774.38;5082841;28;20052;-70
2022/10/30 00:19:20;;;;;;;6.07;3.55;;;;;;;-140.72;100.00;52752.06;5088374;28;20028;-69
2022/10/30 00:21:45;;;;;;;7.18;4.00;;;;;;;-140.72;100.00;52748.00;5080785;28;20124;-69
2022/10/30 00:24:10;;;;;;;5.70;3.72;;;;;;;-140.72;100.00;52776.41;5082795;28;20514;-70
2022/10/30 00:26:36;;;;;;;10.90;3.55;;;;;;;-140.72;100.00;52741.91;5076119;28;20108;-69
2022/10/30 00:29:01;;;;;;;6.32;3.42;;;;;;;-140.72;100.00;52764.25;5084994;28;20127;-69
2022/10/30 00:31:26;;;;;;;4.50;3.38;;;;;;;-140.72;100.00;52766.25;5081430;28;20095;-69
2022/10/30 00:33:53;;;;;;;5.35;3.95;;;;;;;-140.72;100.00;52792.66;5082144;28;20031;-69
2022/10/30 00:36:19;;;;;;;5.80;3.47;;;;;;;-140.72;100.00;52784.53;5077763;28;20033;-68
2022/10/30 00:38:45;;;;;;;8.57;4.65;;;;;;;-140.72;100.00;52748.00;5083450;28;20032;-69
2022/10/30 00:41:20;;;;;;;6.15;3.33;;;;;;;-140.72;100.00;52772.34;5076120;28;20034;-69
2022/10/30 00:43:46;;;;;;;5.35;3.20;;;;;;;-140.72;100.00;52772.34;5079207;28;20044;-69
2022/10/30 00:46:29;;;;;;;9.48;3.72;;;;;;;-140.72;100.00;52788.59;5079940;28;20021;-69
2022/10/30 00:48:59;;;;;;;7.35;3.60;;;;;;;-140.72;100.00;52792.66;5083099;28;20020;-69
2022/10/30 00:51:26;;;;;;;;;;;;;;;-140.72;100.00;52802.78;5087850;28;20432;-69
2022/10/30 00:53:53;;;;;;;6.97;3.47;;;;;;;-140.72;100.00;52798.72;5087645;28;19957;-69
2022/10/30 00:56:21;;;;;;;10.90;4.43;;;;;;;-140.72;100.00;52790.63;5082367;28;20082;-69
2022/10/30 00:58:57;;;;;;;9.05;4.03;;;;;;;-140.72;100.00;52806.84;5079270;28;20027;-70
2022/10/30 01:01:25;;;;;;;7.78;4.63;;;;;;;-140.72;100.00;52764.25;5083841;28;20016;-69
2022/10/30 01:03:59;;;;;;;7.72;5.03;;;;;;;-140.72;100.00;52825.13;5076708;28;20487;-68
2022/10/30 01:06:26;;;;;;;4.57;2.95;;;;;;;-140.72;100.00;52821.06;5085951;28;20020;-70
2022/10/30 01:08:54;;;;;;;6.72;3.65;;;;;;;-140.72;100.00;52817.00;5087490;28;20210;-70
2022/10/30 01:11:19;;;;;;;8.73;4.25;;;;;;;-140.72;100.00;52786.56;5079683;28;20028;-69
2022/10/30 01:13:47;;;;;;;6.32;3.70;;;;;;;-140.72;100.00;52792.66;5077228;28;20396;-69
2022/10/30 01:16:18;;;;;;;6.78;3.70;;;;;;;-140.72;100.00;52778.44;5078449;28;20140;-69
2022/10/30 01:19:17;;;;;;;8.30;3.63;;;;;;;-140.72;100.00;52823.09;5088955;28;20157;-70
2022/10/30 01:22:10;;;;;;;4.45;3.00;;;;;;;-140.72;100.00;52798.72;5080446;28;20387;-69
2022/10/30 01:24:42;;;;;;;6.75;3.67;;;;;;;-140.72;100.00;52766.25;5086521;28;20059;-69
2022/10/30 01:27:10;;;;;;;4.03;2.88;;;;;;;-140.72;100.00;52768.28;5084235;28;20096;-69
2022/10/30 01:29:54;;;;;;;11.02;3.78;;;;;;;-140.72;100.00;52808.88;5081589;28;20028;-69
2022/10/30 01:32:54;;;;;;;7.32;3.78;;;;;;;-140.72;100.00;52786.56;5080891;28;20374;-69
2022/10/30 01:35:58;;;;;;;7.30;3.97;;;;;;;-140.72;100.00;52796.72;5082643;28;20081;-69
2022/10/30 01:38:32;;;;;;;6.25;4.03;;;;;;;-140.72;100.00;52778.44;5082603;28;20051;-69
2022/10/30 01:40:57;;;;;;;7.22;4.28;;;;;;;-140.72;100.00;52821.06;5086349;28;20032;-71
2022/10/30 01:43:22;;;;;;;6.13;3.67;;;;;;;-140.72;100.00;52808.88;5079798;28;20032;-70
2022/10/30 01:46:12;;;;;;;6.78;3.55;;;;;;;-140.72;100.00;52800.75;5081070;28;20027;-68
2022/10/30 01:49:02;;;;;;;5.75;3.42;;;;;;;-140.72;100.00;52788.59;5083638;28;20027;-70
2022/10/30 01:51:30;;;;;;;7.18;3.85;;;;;;;-140.72;100.00;52756.13;5085083;28;20021;-69
2022/10/30 01:54:17;;;;;;;6.55;3.85;;;;;;;-140.72;100.00;52796.72;5087852;28;20379;-68
2022/10/30 01:56:48;;;;;;;7.00;3.85;;;;;;;-140.72;100.00;52774.38;5085634;28;20035;-69
2022/10/30 01:59:24;;;;;;;6.97;3.78;;;;;;;-140.72;100.00;52788.59;5083203;28;20032;-69
2022/10/30 02:01:50;;;;;;;7.72;4.07;;;;;;;-140.72;100.00;52812.94;5082095;28;20060;-69
2022/10/30 02:04:16;;;;;;;7.70;3.38;;;;;;;-140.72;100.00;52814.97;5086195;28;20027;-68
2022/10/30 02:06:42;;;;;;;7.22;4.47;;;;;;;-140.72;100.00;52821.06;5089127;28;20024;-69
2022/10/30 02:09:07;;;;;;;6.03;4.13;;;;;;;-140.72;100.00;52837.28;5093965;28;20044;-70
2022/10/30 02:11:34;;;;;;;6.53;2.83;;;;;;;-140.72;100.00;52808.88;5091677;28;20020;-68
2022/10/30 02:14:03;;;;;;;5.95;3.60;;;;;;;-140.72;100.00;52790.63;5093224;28;20025;-69
2022/10/30 02:16:29;;;;;;;7.22;4.32;;;;;;;-140.72;100.00;52843.38;5083210;28;20028;-70
2022/10/30 02:18:55;;;;;;;6.25;4.63;;;;;;;-140.72;100.00;52788.59;5087276;28;20114;-68
2022/10/30 02:21:20;;;;;;;6.65;4.03;;;;;;;-140.72;100.00;52786.56;5085266;28;20029;-69
2022/10/30 02:24:10;;;;;;;7.30;4.10;;;;;;;-140.72;100.00;52819.03;5080204;28;20101;-69
2022/10/30 02:30:05;;;;;;;8.10;3.10;;;;;;;-140.72;100.00;52833.22;5082946;28;20090;-69
2022/10/30 02:32:37;;;;;;;3.58;2.90;;;;;;;-140.72;100.00;52833.22;5092610;28;20051;-69
2022/10/30 02:35:04;;;;;;;4.85;3.03;;;;;;;-140.72;100.00;52788.59;5088498;28;20024;-69
2022/10/30 02:37:39;;;;;;;6.65;3.20;;;;;;;-140.72;100.00;52831.19;5080260;28;20028;-70
2022/10/30 02:40:19;;;;;;;9.85;4.95;;;;;;;-140.72;100.00;52843.38;5077210;28;20028;-69
2022/10/30 02:42:51;;;;;;;4.90;3.20;;;;;;;-140.72;100.00;52800.75;5077716;28;20056;-70
2022/10/30 02:45:16;;;;;;;5.03;2.92;;;;;;;-140.72;100.00;52792.66;5075811;28;20021;-69
2022/10/30 02:47:42;;;;;;;5.47;2.72;;;;;;;-140.72;100.00;52817.00;5076215;28;20024;-69
2022/10/30 02:50:08;;;;;;;4.20;3.03;;;;;;;-140.72;100.00;52800.75;5088143;28;20111;-70
2022/10/30 02:52:33;;;;;;;6.22;3.00;;;;;;;-140.72;100.00;52875.84;5075584;28;20107;-69
2022/10/30 02:54:58;;;;;;;6.30;3.55;;;;;;;-140.72;100.00;52804.81;5075567;28;20032;-68
2022/10/30 02:57:24;;;;;;;8.50;3.58;;;;;;;-140.72;100.00;52794.69;5087161;28;20032;-70
2022/10/30 02:59:49;;;;;;;5.43;3.30;;;;;;;-140.72;100.00;52825.13;5076831;28;20048;-70
2022/10/30 03:02:14;;;;;;;8.57;3.30;;;;;;;-140.72;100.00;52837.28;5087101;28;20028;-68
2022/10/30 03:04:39;;;;;;;5.88;3.30;;;;;;;-140.72;100.00;52800.75;5091610;28;20024;-69
2022/10/30 03:07:05;;;;;;;5.68;3.38;;;;;;;-140.72;100.00;52863.66;5087997;28;20079;-70
2022/10/30 03:09:30;;;;;;;6.32;3.70;;;;;;;-140.72;100.00;52804.81;5094114;28;20482;-69
2022/10/30 03:12:01;;;;;;;4.60;3.80;;;;;;;-140.72;100.00;52853.53;5081306;28;20484;-69
2022/10/30 03:14:27;;;;;;;8.35;3.08;;;;;;;-140.72;100.00;52821.06;5081818;28;20024;-69
2022/10/30 03:16:52;;;;;;;4.22;2.80;;;;;;;-140.72;100.00;52847.44;5093989;28;20039;-69
2022/10/30 03:19:24;;;;;;;6.50;3.60;;;;;;;-140.72;100.00;52837.28;5074634;28;20070;-68
2022/10/30 03:21:49;;;;;;;5.68;3.90;;;;;;;-140.72;100.00;52837.28;5083711;28;20028;-69
2022/10/30 03:24:14;;;;;;;6.80;3.60;;;;;;;-140.72;100.00;52833.22;5094127;28;20070;-70
2022/10/30 03:26:40;;;;;;;6.32;2.92;;;;;;;-140.72;100.00;52817.00;5086479;28;20025;-69
2022/10/30 03:29:05;;;;;;;8.93;3.72;;;;;;;-140.72;100.00;52837.28;5074413;28;20111;-69
2022/10/30 03:31:31;;;;;;;5.15;3.38;;;;;;;-140.72;100.00;52849.47;5074562;28;20556;-68
2022/10/30 03:33:57;;;;;;;5.57;4.03;;;;;;;-140.72;100.00;52835.25;5053699;22;20060;-68
2022/10/30 03:36:24;;;;;;;8.63;4.15;;;;;;;-140.72;100.00;52835.25;5012509;28;20069;-68
2022/10/30 03:38:49;;;;;;;6.75;4.07;;;;;;;-140.72;100.00;52823.09;5012276;28;20018;-70
2022/10/30 03:41:15;;;;;;;5.38;3.78;;;;;;;-140.72;100.00;52855.56;5017087;28;20557;-67
2022/10/30 03:43:41;;;;;;;5.50;3.92;;;;;;;-140.72;100.00;52845.41;5016980;28;20381;-68
2022/10/30 03:46:08;;;;;;;5.43;3.75;;;;;;;-140.72;100.00;52825.13;5030532;28;20038;-68
2022/10/30 03:48:34;;;;;;;6.95;3.70;;;;;;;-140.72;100.00;52833.22;5025039;28;20029;-68
2022/10/30 03:50:59;;;;;;;3.33;2.72;;;;;;;-140.72;100.00;52875.84;5041290;28;20030;-68
2022/10/30 03:53:25;;;;;;;6.93;3.80;;;;;;;-140.72;100.00;52861.66;5017717;28;20105;-68
2022/10/30 03:55:51;;;;;;;9.60;3.92;;;;;;;-140.72;100.00;52833.22;5015173;28;20370;-67
2022/10/30 03:58:17;;;;;;;5.80;4.25;;;;;;;-140.72;100.00;52837.28;5013656;28;20156;-67
2022/10/30 04:00:42;;;;;;;9.75;5.13;;;;;;;-140.72;100.00;52859.63;5018466;28;20091;-68
2022/10/30 04:03:09;;;;;;;8.88;4.32;;;;;;;-140.72;100.00;52829.19;5007083;28;20022;-67
2022/10/30 04:05:34;;;;;;;10.40;4.53;;;;;;;-140.72;100.00;52857.59;4998865;28;20030;-68
2022/10/30 04:08:03;;;;;;;6.13;4.35;;;;;;;-140.72;100.00;52853.53;5006467;28;20030;-68
2022/10/30 04:10:28;;;;;;;7.85;4.45;;;;;;;-140.72;100.00;52875.84;5025155;28;20026;-67
2022/10/30 04:13:05;;;;;;;8.02;5.35;;;;;;;-140.72;100.00;52853.53;5000579;28;20037;-67
2022/10/30 04:15:31;;;;;;;7.72;4.65;;;;;;;-140.72;100.00;52814.97;5020088;28;20107;-68
2022/10/30 04:17:57;;;;;;;7.32;5.25;;;;;;;-140.72;100.00;52833.22;5019337;28;20485;-67
2022/10/30 04:20:24;;;;;;;7.68;4.97;;;;;;;-140.72;100.00;52851.50;5019928;28;20075;-68
2022/10/30 04:22:58;;;;;;;13.63;8.77;;;;;;;-140.72;100.00;52845.41;5011678;28;20029;-68
2022/10/30 04:25:24;;;;;;;18.67;9.40;;;;;;;-140.72;100.00;52845.41;5016892;28;20019;-67
2022/10/30 04:27:51;;;;;;;7.93;5.22;;;;;;;-140.72;100.00;52849.47;5005863;28;20038;-67
2022/10/30 04:30:16;;;;;;;7.75;4.90;;;;;;;-140.72;100.00;52823.09;5005825;28;20037;-68
2022/10/30 04:32:49;;;;;;;6.82;4.80;;;;;;;-140.72;100.00;52825.13;5015032;28;20018;-68
2022/10/30 04:35:16;;;;;;;8.20;4.68;;;;;;;-140.72;100.00;52857.59;5017907;28;20026;-68
2022/10/30 04:37:42;;;;;;;11.13;5.30;;;;;;;-140.72;100.00;52829.19;5027029;28;20045;-68
2022/10/30 04:40:08;;;;;;;9.25;5.70;;;;;;;-140.72;100.00;52861.66;5008537;28;20033;-68
2022/10/30 04:42:33;;;;;;;8.00;5.28;;;;;;;-140.72;100.00;52867.72;5001727;28;20034;-67
2022/10/30 04:45:01;;;;;;;8.85;6.03;;;;;;;-140.72;100.00;52829.19;5001265;28;20093;-67
2022/10/30 04:47:27;;;;;;;9.73;5.35;;;;;;;-140.72;100.00;52829.19;4998160;28;20036;-67
2022/10/30 04:49:52;;;;;;;10.00;5.25;;;;;;;-140.72;100.00;52888.03;4998408;28;20093;-67
2022/10/30 04:52:17;;;;;;;8.95;4.80;;;;;;;-140.72;100.00;52867.72;5005905;28;20027;-66
2022/10/30 04:54:43;;;;;;;13.23;5.53;;;;;;;-140.72;100.00;52851.50;5007542;28;20113;-68
2022/10/30 04:57:09;;;;;;;7.93;5.97;;;;;;;-140.72;100.00;52881.94;5010643;28;20017;-68
2022/10/30 04:59:34;;;;;;;11.70;4.65;;;;;;;-140.72;100.00;52873.81;5010667;28;20034;-69
2022/10/30 05:01:59;;;;;;;12.15;5.15;;;;;;;-140.72;100.00;52857.59;5011484;28;20044;-69
2022/10/30 05:04:25;;;;;;;8.75;4.70;;;;;;;-140.72;100.00;52894.13;5005873;28;20086;-68
2022/10/30 05:06:50;;;;;;;10.15;4.88;;;;;;;-140.72;100.00;52883.97;5010852;28;20026;-68
2022/10/30 05:09:16;;;;;;;7.35;5.45;;;;;;;-140.72;100.00;52835.25;5013385;28;20502;-68
2022/10/30 05:11:41;;;;;;;7.53;4.93;;;;;;;-140.72;100.00;52875.84;5020621;28;20033;-69
2022/10/30 05:14:06;;;;;;;6.97;4.97;;;;;;;-140.72;100.00;52837.28;5008924;28;20046;-68
2022/10/30 05:16:32;;;;;;;11.02;5.47;;;;;;;-140.72;100.00;52861.66;5007682;28;20049;-68
2022/10/30 05:18:57;;;;;;;7.75;6.05;;;;;;;-140.72;100.00;52845.41;5009512;28;20042;-68
2022/10/30 05:21:23;;;;;;;9.23;6.18;;;;;;;-140.72;100.00;52892.09;5019149;28;20073;-67
2022/10/30 05:23:48;;;;;;;13.50;7.32;;;;;;;-140.72;100.00;52853.53;5012523;28;20490;-67
2022/10/30 05:26:13;;;;;;;13.50;6.50;;;;;;;-140.72;100.00;52865.69;5012634;28;20037;-68
2022/10/30 05:28:39;;;;;;;13.10;7.20;;;;;;;-140.72;100.00;52861.66;5016156;28;20038;-69
2022/10/30 05:31:05;;;;;;;11.82;7.00;;;;;;;-140.72;100.00;52851.50;5010840;28;20033;-70
2022/10/30 05:33:30;;;;;;;8.48;5.78;;;;;;;-140.72;100.00;52837.28;5016681;28;20046;-69
2022/10/30 05:35:56;;;;;;;18.88;6.55;;;;;;;-140.72;100.00;52865.69;5018981;28;20026;-69
2022/10/30 05:38:21;;;;;;;9.02;6.55;;;;;;;-140.72;100.00;52829.19;5009882;28;20053;-73
2022/10/30 05:40:46;;;;;;;8.85;5.78;;;;;;;-140.72;100.00;52827.16;5013705;28;20014;-68
2022/10/30 05:43:11;;;;;;;9.98;6.32;;;;;;;-140.72;100.00;52837.28;4997347;28;20034;-67
2022/10/30 05:45:37;;;;;;;7.97;5.70;;;;;;;-140.72;100.00;52833.22;5024452;28;20025;-69
2022/10/30 05:48:05;;;;;;;11.10;6.00;;;;;;;-140.72;100.00;52841.34;5022655;28;20106;-67
2022/10/30 05:50:31;;;;;;;9.07;6.18;;;;;;;-140.72;100.00;52861.66;5025499;28;20033;-67
2022/10/30 05:52:57;;;;;;;12.13;6.40;;;;;;;-140.72;100.00;52857.59;5009155;28;20105;-68
2022/10/30 05:55:23;;;;;;;8.45;6.40;;;;;;;-140.72;100.00;52837.28;5021683;28;20029;-68
2022/10/30 05:57:49;;;;;;;7.95;6.38;;;;;;;-140.72;100.00;52871.78;4999600;28;20507;-67
2022/10/30 06:00:14;;;;;;;7.90;5.60;;;;;;;-140.72;100.00;52871.78;5008942;28;20032;-68
2022/10/30 06:02:40;;;;;;;12.57;6.90;;;;;;;-140.72;100.00;52849.47;5012011;28;20307;-67
2022/10/30 06:05:05;;;;;;;7.70;6.10;;;;;;;-140.72;100.00;52879.91;5020244;28;20485;-67
2022/10/30 06:07:31;;;;;;;12.00;6.18;;;;;;;-140.72;100.00;52859.63;5005586;28;20022;-67
2022/10/30 06:09:56;;;;;;;11.85;6.03;;;;;;;-140.72;100.00;52817.00;5004725;28;20018;-67
2022/10/30 06:12:22;;;;;;;9.20;5.70;;;;;;;-140.72;100.00;52865.69;5013755;28;20110;-69
2022/10/30 06:14:47;;;;;;;8.95;7.00;;;;;;;-140.72;100.00;52873.81;5016546;28;20116;-68
2022/10/30 06:17:12;;;;;;;12.20;6.38;;;;;;;-140.72;100.00;52821.06;5011987;28;20072;-68
2022/10/30 06:19:38;;;;;;;9.40;5.18;;;;;;;-140.72;100.00;52849.47;5002221;28;20394;-68
2022/10/30 06:22:03;;;;;;;9.38;6.65;;;;;;;-140.72;100.00;52873.81;5001847;28;20371;-69
2022/10/30 06:24:28;;;;;;;8.65;5.93;;;;;;;-140.72;100.00;52837.28;5009549;28;20038;-68
2022/10/30 06:26:54;;;;;;;10.40;6.68;;;;;;;-140.72;100.00;52841.34;5006346;28;20335;-67
2022/10/30 06:29:19;;;;;;;7.55;5.60;;;;;;;-140.72;100.00;52845.41;5009807;28;20037;-68
2022/10/30 06:31:44;;;;;;;11.38;5.68;;;;;;;-140.72;100.00;52825.13;4999267;28;20385;-67
2022/10/30 06:34:24;;;;;;;11.35;6.15;;;;;;;-140.72;100.00;52894.13;5010180;28;20409;-67
2022/10/30 06:37:05;;;;;;;11.13;5.80;;;;;;;-140.72;100.00;52863.66;5002869;28;20389;-68
2022/10/30 06:39:30;;;;;;;9.05;6.45;;;;;;;-140.72;100.00;52873.81;5005680;28;20460;-68
2022/10/30 06:41:56;;;;;;;12.20;7.40;;;;;;;-140.72;100.00;52871.78;5011086;28;20127;-67
2022/10/30 06:44:21;;;;;;;7.03;5.50;;;;;;;-140.72;100.00;52837.28;5003317;28;20022;-67
2022/10/30 06:46:46;;;;;;;6.93;4.82;;;;;;;-140.72;100.00;52855.56;5001524;28;20077;-70
2022/10/30 06:49:11;;;;;;;7.85;5.80;;;;;;;-140.72;100.00;52853.53;5003994;28;20433;-67
2022/10/30 06:51:37;;;;;;;7.88;4.80;;;;;;;-140.72;100.00;52849.47;5002499;28;20386;-67
2022/10/30 06:54:03;;;;;;;9.50;5.93;;;;;;;-140.72;100.00;52831.19;5002487;28;20046;-67
2022/10/30 06:56:28;;;;;;;8.88;5.05;;;;;;;-140.72;100.00;52833.22;5010951;28;20064;-68
2022/10/30 06:58:53;;;;;;;8.55;5.60;;;;;;;-140.72;100.00;52871.78;5003677;28;20029;-67
2022/10/30 07:01:19;;;;;;;9.98;4.85;;;;;;;-140.72;100.00;52849.47;5004023;28;20029;-68
2022/10/30 07:03:44;;;;;;;9.23;6.32;;;;;;;-140.72;100.00;52857.59;5002713;28;20026;-67
2022/10/30 07:06:09;;;;;;;8.68;5.75;;;;;;;-140.72;100.00;52853.53;5001778;28;20042;-68
2022/10/30 07:08:35;;;;;;;9.90;5.95;;;;;;;-140.72;100.00;52849.47;5000272;28;20038;-67
2022/10/30 07:11:00;;;;;;;9.23;6.22;;;;;;;-140.72;100.00;52821.06;4998879;28;20026;-68
2022/10/30 07:13:25;;;;;;;9.75;6.25;;;;;;;-140.72;100.00;52847.44;5018399;28;21262;-68
2022/10/30 07:15:51;;;;;;;8.88;6.40;;;;;;;-140.72;100.00;52853.53;4999820;28;20029;-68
2022/10/30 07:18:16;;;;;;;8.48;5.90;;;;;;;-140.72;100.00;52853.53;5004635;28;20029;-67
2022/10/30 07:20:41;;;;;;;10.18;7.20;;;;;;;-140.72;100.00;52821.06;5009576;28;20029;-67
2022/10/30 07:23:06;;;;;;;9.30;6.65;;;;;;;-140.72;100.00;52833.22;5011456;28;20145;-68
2022/10/30 07:25:32;;;;;;;12.25;7.07;;;;;;;-140.72;100.00;52841.34;5011350;28;20085;-73
2022/10/30 07:27:57;;;;;;;9.88;6.35;;;;;;;-140.72;100.00;52817.00;5008652;28;20397;-72
2022/10/30 07:30:26;;;;;;;10.43;6.47;;;;;;;-140.72;100.00;52833.22;5004348;28;20478;-71
2022/10/30 07:33:06;;;;;;;9.77;6.97;;;;;;;-140.72;100.00;52800.75;5009295;28;20413;-69
2022/10/30 07:35:32;;;;;;;;;;;;;;;-140.72;100.00;52817.00;5029044;28;20026;-69
2022/10/30 07:38:05;;;;;;;9.25;6.72;;;;;;;-140.72;100.00;52831.19;5007528;28;19924;-69
2022/10/30 07:40:31;;;;;;;8.80;5.93;;;;;;;-140.72;100.00;52770.31;5008600;28;20031;-69
2022/10/30 07:42:58;;;;;;;10.57;7.10;;;;;;;-140.72;100.00;52817.00;5000871;28;20389;-69
2022/10/30 07:45:24;;;;;;;9.25;7.25;;;;;;;-140.72;100.00;52804.81;5015796;28;20037;-70
2022/10/30 07:47:49;;;;;;;12.73;6.10;;;;;;;-140.72;100.00;52823.09;4999206;28;20046;-71
2022/10/30 07:50:21;;;;;;;11.23;6.20;;;;;;;-140.72;100.00;52812.94;5002205;28;20068;-69
2022/10/30 07:52:47;;;;;;;11.90;7.13;;;;;;;-140.72;100.00;52810.91;5020572;28;20033;-69
2022/10/30 07:55:22;;;;;;;13.00;6.78;;;;;;;-140.72;100.00;52819.03;5009683;28;20432;-69
2022/10/30 07:57:47;;;;;;;9.75;6.95;;;;;;;-140.72;100.00;52776.41;5016604;28;20095;-68
2022/10/30 08:00:14;;;;;;;11.60;6.68;;;;;;;-140.72;100.00;52784.53;5012508;28;20078;-69
2022/10/30 08:02:40;;;;;;;10.32;6.68;;;;;;;-140.72;100.00;52764.25;5025060;28;20029;-69
2022/10/30 08:05:06;;;;;;;10.15;6.70;;;;;;;-140.72;100.00;52798.72;5010688;28;20028;-68
2022/10/30 08:07:36;;;;;;;10.65;7.00;;;;;;;-140.72;100.00;52770.31;5013495;28;20034;-67
2022/10/30 08:10:02;;;;;;;;;;;;;;;-140.72;100.00;52843.38;5011149;28;20056;-70
2022/10/30 08:12:27;;;;;;;8.77;5.95;;;;;;;-140.72;100.00;52837.28;5007009;28;19910;-68
2022/10/30 08:14:53;;;;;;;8.48;5.95;;;;;;;-140.72;100.00;52804.81;5018192;28;20026;-67
2022/10/30 08:17:19;;;;;;;11.38;7.03;;;;;;;-140.72;100.00;52794.69;5010716;28;20338;-68
2022/10/30 08:19:44;;;;;;;15.80;6.32;;;;;;;-140.72;100.00;52792.66;5009441;28;20038;-67
2022/10/30 08:22:10;;;;;;;8.40;6.22;;;;;;;-140.72;100.00;52788.59;5017513;28;20555;-68
2022/10/30 08:24:35;;;;;;;9.95;7.38;;;;;;;-140.72;100.00;52766.25;5004231;28;20022;-68
2022/10/30 08:27:02;;;;;;;10.63;6.22;;;;;;;-140.72;100.00;52756.13;5004607;28;20355;-68
2022/10/30 08:29:27;;;;;;;12.45;6.35;;;;;;;-140.72;100.00;52756.13;5003821;28;20111;-69
2022/10/30 08:31:53;;;;;;;9.13;6.10;;;;;;;-140.72;100.00;52737.84;5011911;28;20123;-68
2022/10/30 08:34:18;;;;;;;6.75;6.05;;;;;;;-140.72;100.00;52756.13;5028337;28;20042;-67
2022/10/30 08:36:43;;;;;;;9.50;5.95;;;;;;;-140.72;100.00;52748.00;5019996;28;20116;-67
2022/10/30 08:39:09;;;;;;;9.48;6.25;;;;;;;-140.72;100.00;52743.94;5015857;28;20119;-67
2022/10/30 08:41:34;;;;;;;14.38;5.30;;;;;;;-140.72;100.00;52731.75;5017183;28;20064;-68
2022/10/30 08:44:00;;;;;;;8.52;5.43;;;;;;;-140.72;100.00;52725.69;5031902;28;20060;-67
2022/10/30 08:46:25;;;;;;;7.15;4.70;;;;;;;-140.72;100.00;52689.16;5017784;28;20712;-68
2022/10/30 08:48:50;;;;;;;10.73;5.30;;;;;;;-140.72;100.00;52739.88;5019516;28;20026;-68
2022/10/30 08:51:16;;;;;;;6.63;4.55;;;;;;;-140.72;100.00;52739.88;5031973;28;20473;-69
2022/10/30 08:53:41;;;;;;;10.65;4.80;;;;;;;-140.72;100.00;52721.63;5021287;28;20026;-70
2022/10/30 08:56:07;;;;;;;7.70;5.15;;;;;;;-140.72;100.00;52723.66;5028679;28;20509;-70
2022/10/30 08:58:32;;;;;;;9.98;5.28;;;;;;;-140.72;100.00;52691.19;5015508;28;20038;-69
2022/10/30 09:00:57;;;;;;;7.95;5.03;;;;;;;-140.72;100.00;52670.88;5015431;28;20025;-69
2022/10/30 09:03:23;;;;;;;10.55;4.40;;;;;;;-140.72;100.00;52739.88;5011900;28;20064;-68
2022/10/30 09:05:48;;;;;;;8.07;5.13;;;;;;;-140.72;100.00;52695.25;5026915;28;20079;-69
2022/10/30 09:08:14;;;;;;;5.65;4.20;;;;;;;-140.72;100.00;52685.09;5018103;28;20077;-69
2022/10/30 09:10:39;;;;;;;7.10;5.00;;;;;;;-140.72;100.00;52679.00;5021363;28;21230;-69
2022/10/30 09:13:05;;;;;;;7.80;5.07;;;;;;;-140.72;100.00;52711.47;5014767;28;20033;-68
2022/10/30 09:15:30;;;;;;;7.55;4.75;;;;;;;-140.72;100.00;52703.34;5012840;28;20034;-68
2022/10/30 09:18:01;;;;;;;8.80;5.30;;;;;;;-140.72;100.00;52717.56;5013761;28;20086;-68
2022/10/30 09:20:27;;;;;;;8.13;5.00;;;;;;;-140.72;100.00;52689.16;5027856;28;20397;-68
2022/10/30 09:22:53;;;;;;;6.47;4.50;;;;;;;-140.72;100.00;52670.88;5018254;28;20444;-68
2022/10/30 09:25:19;;;;;;;7.85;4.88;;;;;;;-140.72;100.00;52713.50;5017852;28;20450;-69
2022/10/30 09:27:45;;;;;;;9.77;5.28;;;;;;;-140.72;100.00;52699.31;5017437;28;20085;-69
2022/10/30 09:30:14;;;;;;;7.03;4.50;;;;;;;-140.72;100.00;52693.22;5036791;28;20030;-69
2022/10/30 09:32:39;;;;;;;8.18;4.70;;;;;;;-140.72;100.00;52735.81;5023041;28;20038;-68
2022/10/30 09:35:05;;;;;;;8.07;5.05;;;;;;;-140.72;100.00;52679.00;5009533;28;20058;-69
2022/10/30 09:37:38;;;;;;;10.20;5.00;;;;;;;-140.72;100.00;52674.94;5022847;28;20058;-69
2022/10/30 09:40:05;;;;;;;8.25;5.35;;;;;;;-140.72;100.00;52650.59;5026862;28;20044;-70
2022/10/30 09:42:42;;;;;;;6.05;4.35;;;;;;;-140.72;100.00;52685.09;5020110;28;20046;-70
2022/10/30 09:45:31;;;;;;;8.20;4.97;;;;;;;-140.72;100.00;52660.75;5010662;28;20033;-71
2022/10/30 09:48:30;;;;;;;7.97;4.20;;;;;;;-140.72;100.00;52691.19;5016386;28;20034;-68
2022/10/30 09:58:45;;;;;;;6.32;4.32;;;;;;;-140.72;100.00;52656.69;5136905;27;20431;-67
2022/10/30 10:01:35;;;;;;;12.25;5.30;;;;;;;-140.72;100.00;52640.44;5132668;28;20035;-68
2022/10/30 10:04:27;;;;;;;7.43;4.72;;;;;;;-140.72;100.00;52650.59;5130366;28;20434;-67
2022/10/30 10:07:00;;;;;;;6.70;4.32;;;;;;;-140.72;100.00;52620.16;5080966;28;20031;-67
2022/10/30 10:09:28;;;;;;;8.05;4.70;;;;;;;-140.72;100.00;52638.41;5135128;28;20517;-70
2022/10/30 10:11:59;;;;;;;7.82;4.63;;;;;;;-140.72;100.00;52634.38;5133515;28;20367;-69
2022/10/30 10:14:28;;;;;;;9.07;5.07;;;;;;;-140.72;100.00;52634.38;5126604;28;20028;-68
2022/10/30 10:16:57;;;;;;;4.93;3.97;;;;;;;-140.72;100.00;52626.25;5120540;28;20028;-67
2022/10/30 10:19:37;;;;;;;6.18;3.17;;;;;;;-140.72;100.00;52630.31;5120433;28;20043;-69
2022/10/30 10:22:05;;;;;;;;;;;;;;;-140.72;100.00;52636.38;5127348;28;20046;-67
2022/10/30 10:24:36;;;;;;;7.45;4.55;;;;;;;-140.72;100.00;52634.38;5118853;28;19919;-68
2022/10/30 10:27:11;;;;;;;6.63;4.20;;;;;;;-140.72;100.00;52622.19;5133044;28;20035;-68
2022/10/30 10:29:49;;;;;;;7.50;4.07;;;;;;;-140.72;100.00;52603.94;5128801;28;20051;-68
2022/10/30 10:32:29;;;;;;;8.88;3.55;;;;;;;-140.72;100.00;52622.19;5137791;28;20019;-67
2022/10/30 10:34:55;;;;;;;5.82;3.80;;;;;;;-140.72;100.00;52638.41;5117580;27;20028;-68
2022/10/30 10:37:47;;;;;;;10.40;4.15;;;;;;;-140.72;100.00;52595.81;5112954;28;20031;-68
2022/10/30 10:40:42;;;;;;;6.90;3.10;;;;;;;-140.72;100.00;52640.44;5112644;28;20138;-70
2022/10/30 10:43:07;;;;;;;7.82;4.35;;;;;;;-140.72;100.00;52597.84;5083358;28;20036;-68
2022/10/30 10:46:12;;;;;;;6.93;3.90;;;;;;;-140.72;100.00;52614.06;5109568;28;20480;-67
2022/10/30 10:49:04;;;;;;;6.72;3.85;;;;;;;-140.72;100.00;52591.75;5109902;28;20028;-68
2022/10/30 10:51:39;;;;;;;7.72;3.65;;;;;;;-140.72;100.00;52593.78;5108874;28;20116;-68
2022/10/30 10:54:15;;;;;;;6.25;2.95;;;;;;;-140.72;100.00;52557.25;5113428;28;20036;-68
2022/10/30 10:56:45;;;;;;;5.00;3.03;;;;;;;-140.72;100.00;52539.00;5114232;28;20055;-67
2022/10/30 10:59:22;;;;;;;4.68;3.28;;;;;;;-140.72;100.00;52551.16;5114186;28;20110;-68
2022/10/30 11:01:57;;;;;;;7.25;3.80;;;;;;;-140.72;100.00;52524.78;5115240;28;20080;-68
2022/10/30 11:04:33;;;;;;;4.70;3.30;;;;;;;-140.72;100.00;52545.06;5107555;28;20054;-69
2022/10/30 11:07:05;;;;;;;3.78;2.45;;;;;;;-140.72;100.00;52480.16;5110663;28;20039;-69
2022/10/30 11:09:30;;;;;;;9.98;3.22;;;;;;;-140.72;100.00;52484.19;5083275;28;20032;-70
2022/10/30 11:11:56;;;;;;;5.00;3.20;;;;;;;-140.72;100.00;52461.88;5100005;28;20105;-69
2022/10/30 11:14:26;;;;;;;7.50;2.67;;;;;;;-140.72;100.00;52502.47;5068860;28;20193;-69
2022/10/30 11:17:24;;;;;;;8.75;3.90;;;;;;;-140.72;77.55;52474.06;5071017;28;20568;-68
2022/10/30 11:19:57;;;;;;;13.60;3.13;;;;;;;-140.72;0.00;52435.50;5037784;28;20399;-68
2022/10/30 11:22:35;;;;;;;7.30;2.72;;;;;;;-140.72;12.84;52518.69;5091170;28;20095;-68
2022/10/30 11:25:21;;;;;;;5.33;3.00;;;;;;;-140.72;5.53;52506.53;5097841;28;20035;-68
2022/10/30 11:27:58;;;;;;;7.50;3.45;;;;;;;-140.72;50.08;52472.03;5091496;28;20305;-68
2022/10/30 11:30:27;;;;;;;4.20;2.90;;;;;;;-140.72;45.62;52549.13;5092531;28;20115;-67